Time;durP1;ratioP1;P1;durP2;ratioP2;P2;SDS_P1;SDS_P2;PMS_P1;PMS_P2;Temp;Humidity;BMP_temperature;BMP_pressure;BME280_temperature;BME280_humidity;BME280_pressure;Samples;Min_cycle;Max_cycle;Signal;HPM_P1;HPM_P2
2022/01/15 00:04:04;;;;;;;4.15;1.95;;;6.70;59.20;;;5.10;65.79;102645.38;8191822;28;20053;-85
2022/01/15 00:08:28;;;;;;;5.30;2.00;;;6.70;59.20;;;5.03;65.54;102654.03;8203301;28;20480;-84
2022/01/15 00:12:50;;;;;;;3.70;2.05;;;6.60;59.10;;;4.97;65.23;102644.53;8223402;28;20042;-83
2022/01/15 00:17:58;;;;;;;4.80;2.50;;;6.50;59.20;;;4.95;65.41;102642.81;8200982;28;20043;-84
2022/01/15 00:21:57;;;;;;;4.35;1.90;;;6.40;59.10;;;4.89;65.49;102646.28;8209001;28;20043;-83
2022/01/15 00:26:18;;;;;;;6.80;2.60;;;6.50;59.50;;;4.82;65.15;102641.97;8208714;28;20690;-83
2022/01/15 00:30:40;;;;;;;4.53;2.50;;;6.30;59.00;;;4.79;65.36;102636.78;8216125;28;20035;-84
2022/01/15 00:35:04;;;;;;;6.13;1.95;;;6.30;59.10;;;4.73;65.44;102644.56;8206601;28;20045;-83
2022/01/15 00:39:27;;;;;;;3.97;1.98;;;6.30;59.10;;;4.67;65.21;102650.56;8213063;28;20133;-83
2022/01/15 00:43:49;;;;;;;4.03;1.60;;;6.30;59.10;;;4.46;65.24;102615.22;8207501;28;20035;-83
2022/01/15 00:48:11;;;;;;;6.70;2.58;;;6.20;59.10;;;4.50;65.35;102626.41;8198115;28;20420;-83
2022/01/15 00:52:33;;;;;;;7.32;2.72;;;6.20;59.10;;;4.44;65.44;102628.13;8213067;28;20468;-83
2022/01/15 00:56:54;;;;;;;5.85;2.88;;;6.10;59.10;;;4.47;65.35;102631.59;8201275;28;20135;-83
2022/01/15 01:01:16;;;;;;;5.18;2.63;;;6.10;59.10;;;4.42;65.60;102639.34;8215073;28;20052;-83
2022/01/15 01:05:38;;;;;;;7.82;3.15;;;6.00;59.10;;;4.37;65.37;102644.50;8215427;28;20037;-83
2022/01/15 01:10:14;;;;;;;5.30;2.67;;;6.00;59.10;;;4.26;65.47;102632.41;8213662;28;20043;-83
2022/01/15 01:23:57;;;;;;;5.45;3.17;;;5.90;59.00;;;4.13;65.51;102619.47;8199469;28;20128;-84
2022/01/15 01:28:31;;;;;;;5.05;3.47;;;5.80;59.10;;;4.11;65.38;102610.84;8187651;28;20042;-83
2022/01/15 01:33:01;;;;;;;6.07;3.28;;;5.80;59.10;;;4.14;65.44;102612.59;8203174;28;20122;-84
2022/01/15 01:37:35;;;;;;;14.45;3.65;;;5.80;59.20;;;4.12;65.24;102616.88;8218816;28;20492;-83
2022/01/15 01:42:13;;;;;;;5.57;3.08;;;5.80;59.20;;;4.05;65.44;102613.44;8201252;28;20623;-83
2022/01/15 01:47:02;;;;;;;8.27;3.72;;;5.80;59.20;;;4.12;65.58;102638.44;8194636;28;20054;-83
2022/01/15 01:51:35;;;;;;;10.23;3.65;;;5.70;59.10;;;4.06;65.58;102630.66;8211264;28;20038;-83
2022/01/15 01:55:57;;;;;;;5.00;3.35;;;5.70;59.00;;;4.03;65.52;102625.50;8193393;28;20042;-83
2022/01/15 02:00:22;;;;;;;2.95;2.65;;;5.70;59.10;;;3.95;65.54;102607.38;8219762;28;20572;-83
2022/01/15 02:04:43;;;;;;;4.90;2.72;;;5.70;59.10;;;3.98;65.49;102609.97;8214850;28;20046;-83
2022/01/15 02:09:08;;;;;;;4.32;2.60;;;5.60;59.00;;;3.89;65.64;102611.63;8204331;28;20043;-83
2022/01/15 02:13:31;;;;;;;5.22;3.05;;;5.50;59.00;;;3.93;65.39;102611.66;8189618;28;20050;-84
2022/01/15 02:17:53;;;;;;;5.03;2.35;;;5.60;59.10;;;3.76;65.50;102592.66;8210465;28;20560;-84
2022/01/15 02:26:55;;;;;;;6.05;2.67;;;5.40;59.00;;;3.85;65.65;102626.28;8214572;28;20400;-84
2022/01/15 02:31:18;;;;;;;5.10;2.38;;;5.50;59.10;;;3.83;65.62;102620.25;8204887;28;20034;-84
2022/01/15 02:35:41;;;;;;;4.53;3.00;;;5.50;59.10;;;3.80;65.48;102621.97;8206582;28;20039;-84
2022/01/15 02:40:04;;;;;;;8.18;2.30;;;5.30;59.00;;;3.74;65.46;102626.25;8197203;28;20492;-84
2022/01/15 02:44:25;;;;;;;8.45;2.75;;;5.40;58.90;;;3.71;65.37;102615.91;8212764;28;20106;-84
2022/01/15 02:48:51;;;;;;;7.45;2.78;;;5.40;58.90;;;3.50;65.39;102585.69;8208010;28;20043;-84
2022/01/15 02:53:16;;;;;;;7.72;2.33;;;5.30;58.90;;;3.56;65.63;102592.56;8211792;28;20119;-84
2022/01/15 02:57:37;;;;;;;3.67;2.13;;;5.30;59.00;;;3.60;65.40;102602.09;8215332;28;20045;-84
2022/01/15 03:01:59;;;;;;;4.20;2.50;;;5.30;59.00;;;3.51;65.25;102610.66;8188314;28;20066;-84
2022/01/15 03:06:22;;;;;;;7.05;2.25;;;5.20;58.90;;;3.36;65.60;102583.91;8208010;28;20051;-84
2022/01/15 03:10:43;;;;;;;6.60;2.22;;;5.10;58.90;;;3.51;65.54;102614.94;8221680;28;20125;-84
2022/01/15 03:15:07;;;;;;;4.07;2.30;;;5.20;59.00;;;3.44;65.43;102592.53;8215703;28;20037;-84
2022/01/15 03:19:29;;;;;;;7.45;1.95;;;5.10;58.90;;;3.28;65.59;102576.13;8223373;28;20121;-84
2022/01/15 03:23:51;;;;;;;3.15;1.95;;;5.00;58.80;;;3.37;65.54;102598.53;8205459;28;20034;-84
2022/01/15 03:28:12;;;;;;;7.00;1.80;;;5.00;58.90;;;3.12;65.47;102569.16;8225454;28;20043;-85
2022/01/15 03:32:34;;;;;;;3.35;1.55;;;4.90;58.90;;;3.25;65.68;102592.44;8213810;28;20043;-85
2022/01/15 03:36:56;;;;;;;4.70;1.55;;;4.90;58.90;;;3.20;65.66;102590.69;8221652;28;20038;-85
2022/01/15 03:41:18;;;;;;;5.13;2.08;;;5.00;59.00;;;3.32;65.29;102611.41;8198317;28;20511;-85
2022/01/15 03:45:39;;;;;;;5.63;2.30;;;4.90;59.00;;;3.21;65.61;102580.38;8204993;28;20114;-85
2022/01/15 03:50:02;;;;;;;2.92;2.03;;;5.00;58.90;;;3.25;65.39;102579.53;8216627;28;20047;-85
2022/01/15 03:54:24;;;;;;;3.95;1.60;;;4.90;58.90;;;3.15;65.43;102566.56;8223670;28;20154;-85
2022/01/15 03:58:45;;;;;;;5.50;2.40;;;4.90;58.90;;;3.22;65.56;102570.94;8223760;28;20044;-85
2022/01/15 04:03:08;;;;;;;8.38;1.70;;;4.90;58.90;;;3.21;65.71;102575.19;8221480;28;20466;-85
2022/01/15 04:07:29;;;;;;;4.95;1.55;;;4.90;58.90;;;3.08;65.20;102553.66;8216075;28;20041;-84
2022/01/15 04:11:51;;;;;;;3.47;1.70;;;4.90;59.00;;;3.17;65.38;102568.31;8214490;28;20057;-85
2022/01/15 04:16:13;;;;;;;4.78;1.50;;;4.90;59.00;;;3.06;65.45;102547.59;8214402;28;20472;-84
2022/01/15 04:20:35;;;;;;;8.70;1.60;;;4.70;58.90;;;3.06;65.78;102539.88;8195995;28;20072;-84
2022/01/15 04:24:56;;;;;;;3.08;1.88;;;4.90;59.00;;;3.04;65.57;102536.41;8214063;28;20035;-84
2022/01/15 04:29:20;;;;;;;8.15;1.73;;;4.80;58.90;;;3.06;65.52;102536.44;8201564;28;20049;-85
2022/01/15 04:33:42;;;;;;;3.92;2.20;;;4.80;58.80;;;3.04;65.60;102541.56;8210170;28;20126;-84
2022/01/15 04:38:08;;;;;;;4.72;2.28;;;4.80;58.80;;;3.03;65.49;102544.16;8218613;28;20039;-84
2022/01/15 04:42:30;;;;;;;4.93;2.13;;;4.80;58.80;;;3.00;65.75;102545.00;8207504;28;20041;-84
2022/01/15 04:46:52;;;;;;;5.35;2.00;;;4.70;58.80;;;2.94;65.59;102552.69;8217438;28;20027;-84
2022/01/15 04:51:14;;;;;;;2.80;1.60;;;4.70;58.80;;;2.88;65.65;102543.19;8203765;28;20133;-84
2022/01/15 04:55:37;;;;;;;4.47;1.48;;;4.60;58.80;;;2.91;65.35;102556.97;8200093;28;20153;-83
2022/01/15 04:59:59;;;;;;;6.65;1.85;;;4.60;58.80;;;2.81;65.67;102531.13;8218974;28;20129;-83
2022/01/15 05:04:20;;;;;;;5.57;1.48;;;4.40;58.80;;;2.81;65.62;102538.88;8196328;28;20551;-83
2022/01/15 05:08:45;;;;;;;8.20;1.88;;;4.80;59.10;;;2.90;65.80;102560.41;8213642;28;20043;-84
2022/01/15 05:13:06;;;;;;;9.63;2.00;;;4.60;59.00;;;2.73;65.65;102524.16;8205064;28;20035;-84
2022/01/15 05:17:28;;;;;;;5.38;2.22;;;4.60;59.00;;;2.89;65.46;102556.97;8190132;28;20121;-82
2022/01/15 05:21:50;;;;;;;5.07;2.15;;;4.60;59.00;;;2.88;65.82;102571.56;8204463;28;20416;-84
2022/01/15 05:26:12;;;;;;;6.50;2.20;;;4.60;59.10;;;2.84;65.51;102548.34;8204820;28;20043;-83
2022/01/15 05:30:34;;;;;;;4.00;1.80;;;4.80;59.20;;;2.65;65.39;102525.00;8204247;28;20047;-84
2022/01/15 05:34:57;;;;;;;2.22;1.42;;;4.50;59.20;;;2.69;65.44;102537.91;8217611;28;20027;-83
2022/01/15 05:39:18;;;;;;;3.97;2.10;;;4.60;59.30;;;2.93;65.67;102587.09;8186394;28;20562;-83
2022/01/15 05:43:40;;;;;;;5.80;1.83;;;4.60;59.30;;;2.94;65.71;102588.81;8200476;28;20114;-83
2022/01/15 05:48:02;;;;;;;2.22;1.55;;;4.70;59.40;;;2.95;65.59;102581.97;8202742;28;20043;-83
2022/01/15 05:52:24;;;;;;;4.18;1.88;;;4.70;59.50;;;2.95;65.90;102590.56;8199595;28;20122;-83
2022/01/15 05:56:45;;;;;;;4.63;1.95;;;4.70;59.60;;;2.88;65.91;102570.72;8216751;28;20744;-83
2022/01/15 06:01:07;;;;;;;3.95;2.05;;;4.70;59.70;;;2.97;65.82;102578.53;8208593;28;20045;-83
2022/01/15 06:05:29;;;;;;;5.05;2.30;;;4.70;59.80;;;2.88;65.94;102562.97;8210153;28;20125;-83
2022/01/15 06:09:51;;;;;;;3.80;2.10;;;4.80;59.90;;;3.08;65.92;102587.19;8186462;28;20045;-83
2022/01/15 06:14:12;;;;;;;6.03;2.40;;;4.80;60.00;;;3.11;65.60;102586.34;8203493;28;20118;-83
2022/01/15 06:18:34;;;;;;;4.45;2.80;;;4.70;60.10;;;2.98;66.11;102556.16;8195280;28;20126;-83
2022/01/15 06:22:56;;;;;;;9.65;2.33;;;4.90;60.30;;;2.96;66.04;102556.16;8187658;28;20031;-83
2022/01/15 06:27:19;;;;;;;4.38;2.67;;;4.90;60.40;;;3.18;66.25;102584.66;8199258;28;20047;-83
2022/01/15 06:31:40;;;;;;;8.10;2.63;;;4.90;60.60;;;3.21;66.13;102585.53;8200527;28;20122;-83
2022/01/15 06:36:02;;;;;;;6.45;2.88;;;4.90;60.60;;;3.27;66.13;102580.41;8200175;28;20468;-83
2022/01/15 06:40:24;;;;;;;4.15;2.83;;;5.00;60.70;;;3.14;66.34;102557.13;8202066;28;20031;-84
2022/01/15 06:44:46;;;;;;;6.30;2.85;;;5.00;60.70;;;3.24;66.49;102569.19;8195571;28;20035;-83
2022/01/15 06:49:09;;;;;;;6.57;2.67;;;5.10;60.80;;;3.33;66.15;102572.69;8199098;28;20039;-83
2022/01/15 06:53:31;;;;;;;5.18;2.63;;;5.10;60.70;;;3.35;66.13;102583.03;8185980;28;20404;-81
2022/01/15 06:57:53;;;;;;;6.85;2.95;;;5.20;60.70;;;3.34;66.25;102576.13;8181696;28;20037;-83
2022/01/15 07:02:15;;;;;;;7.65;3.10;;;5.20;60.70;;;3.51;66.11;102604.59;8199508;28;20031;-81
2022/01/15 07:06:36;;;;;;;7.22;2.90;;;5.20;60.70;;;3.55;66.44;102601.19;8201362;28;20117;-84
2022/01/15 07:10:58;;;;;;;9.13;3.67;;;5.30;60.80;;;3.50;66.50;102593.41;8198650;28;20410;-84
2022/01/15 07:15:20;;;;;;;7.07;3.28;;;5.30;60.80;;;3.58;66.37;102605.50;8185245;28;20037;-85
2022/01/15 07:19:42;;;;;;;6.50;4.07;;;5.30;60.80;;;3.58;66.41;102618.44;8200675;28;20058;-85
2022/01/15 07:24:04;;;;;;;7.38;3.10;;;5.30;60.80;;;3.50;66.56;102614.09;8199004;28;20035;-84
2022/01/15 07:28:29;;;;;;;7.35;3.67;;;5.40;60.90;;;3.51;66.37;102613.25;8184080;28;20039;-84
2022/01/15 07:32:53;;;;;;;8.43;3.42;;;5.40;60.80;;;3.43;66.29;102606.28;8211878;28;20034;-85
2022/01/15 07:37:15;;;;;;;7.50;3.03;;;5.40;60.90;;;3.59;66.45;102626.16;8192674;28;20045;-83
2022/01/15 07:41:37;;;;;;;13.13;4.32;;;5.40;60.90;;;3.66;66.23;102643.44;8203215;28;20129;-86
2022/01/15 07:45:59;;;;;;;6.28;2.95;;;5.50;61.00;;;3.61;66.57;102644.28;8205822;28;20133;-85
2022/01/15 07:50:24;;;;;;;10.05;4.82;;;5.40;61.00;;;3.60;66.57;102633.09;8179985;28;20070;-85
2022/01/15 07:54:45;;;;;;;5.10;3.03;;;5.50;61.00;;;3.67;66.53;102631.38;8195343;28;20126;-85
2022/01/15 07:59:07;;;;;;;8.30;3.17;;;5.50;61.10;;;3.65;66.28;102633.13;8167361;28;20514;-82
2022/01/15 08:03:29;;;;;;;8.95;2.95;;;5.50;61.10;;;3.65;66.52;102620.19;8201334;28;20425;-83
2022/01/15 08:07:50;;;;;;;7.43;3.00;;;5.50;61.00;;;3.71;66.59;102646.91;8187160;28;20039;-83
2022/01/15 08:12:12;;;;;;;7.05;3.38;;;5.50;61.00;;;3.77;66.39;102658.97;8213822;28;20041;-84
2022/01/15 08:16:34;;;;;;;6.63;3.00;;;5.50;61.10;;;3.54;66.65;102620.16;8221592;28;20625;-82
2022/01/15 08:20:56;;;;;;;11.18;3.53;;;5.40;61.00;;;3.75;66.45;102652.94;8222317;28;20126;-84
2022/01/15 08:25:19;;;;;;;14.63;4.43;;;5.50;61.00;;;3.77;66.57;102653.81;8205422;28;20133;-85
2022/01/15 08:29:41;;;;;;;8.50;3.30;;;5.60;61.10;;;3.77;66.57;102648.66;8196520;28;20045;-85
2022/01/15 08:34:03;;;;;;;7.88;3.08;;;5.70;61.20;;;3.28;66.61;102566.63;8197217;28;20134;-85
2022/01/15 08:38:24;;;;;;;8.55;3.42;;;5.40;61.00;;;3.75;66.77;102637.44;8194259;28;20121;-83
2022/01/15 08:42:46;;;;;;;7.22;3.50;;;5.60;61.10;;;3.87;66.73;102652.16;8196252;28;20130;-89
2022/01/15 08:47:09;;;;;;;12.10;3.88;;;5.70;61.20;;;3.84;66.83;102634.03;8191136;28;20045;-84
2022/01/15 08:51:31;;;;;;;9.60;4.22;;;5.60;61.10;;;3.70;66.54;102605.53;8191275;28;20400;-88
2022/01/15 08:55:54;;;;;;;8.43;3.80;;;5.70;61.20;;;4.01;66.54;102659.94;8190895;28;20039;-86
2022/01/15 09:00:18;;;;;;;8.25;3.80;;;5.70;61.10;;;3.93;66.45;102641.81;8203905;28;20247;-87
2022/01/15 09:04:40;;;;;;;6.07;4.10;;;5.80;61.20;;;3.85;66.58;102631.44;8190042;28;20121;-88
2022/01/15 09:09:02;;;;;;;8.48;3.58;;;5.80;61.10;;;3.97;66.70;102657.34;8188029;28;20036;-86
2022/01/15 09:13:24;;;;;;;10.75;4.85;;;5.80;61.80;;;4.00;66.71;102648.75;8178248;28;20529;-83
2022/01/15 09:17:45;;;;;;;10.57;4.68;;;5.80;61.10;;;4.04;66.34;102665.13;8192778;28;20039;-83
2022/01/15 09:22:11;;;;;;;9.88;4.50;;;5.70;61.00;;;4.09;66.54;102671.16;8191348;28;20043;-83
2022/01/15 09:31:14;;;;;;;8.60;4.32;;;5.90;61.10;;;4.05;66.54;102666.84;8199034;28;20505;-83
2022/01/15 09:35:37;;;;;;;10.27;4.75;;;5.90;61.10;;;4.06;66.66;102666.00;8198186;28;20030;-83
2022/01/15 09:39:59;;;;;;;9.32;4.13;;;5.90;61.10;;;4.20;66.84;102690.16;8200096;28;20042;-82
2022/01/15 09:44:23;;;;;;;9.85;4.18;;;6.00;61.20;;;4.18;66.40;102689.28;8203397;28;20038;-81
2022/01/15 09:48:46;;;;;;;7.93;4.82;;;5.90;61.00;;;4.17;66.43;102674.63;8202993;28;20058;-81
2022/01/15 09:53:10;;;;;;;8.30;3.95;;;6.00;61.20;;;4.23;66.82;102679.81;8192830;28;20038;-83
2022/01/15 09:57:33;;;;;;;10.02;4.65;;;6.00;61.20;;;4.29;66.54;102668.63;8180887;28;20607;-82
2022/01/15 10:01:57;;;;;;;7.18;4.40;;;6.10;61.20;;;4.27;66.63;102663.47;8184150;28;20493;-81
2022/01/15 10:06:19;;;;;;;7.00;4.10;;;6.10;61.10;;;4.42;66.69;102675.56;8186474;28;20043;-81
2022/01/15 10:10:48;;;;;;;14.30;4.45;;;6.10;61.00;;;4.43;66.89;102665.22;8192595;28;20035;-81
2022/01/15 10:15:12;;;;;;;9.07;4.45;;;6.20;60.90;;;4.43;66.65;102654.88;8204799;28;20047;-81
2022/01/15 10:19:36;;;;;;;11.95;4.47;;;6.20;60.90;;;4.48;66.61;102665.22;8191199;28;20045;-81
2022/01/15 10:24:00;;;;;;;15.43;5.93;;;6.20;60.90;;;4.36;66.67;102641.94;8190274;28;20050;-82
2022/01/15 10:28:23;;;;;;;13.68;5.10;;;6.20;60.80;;;4.47;66.65;102652.28;8196030;28;20492;-81
2022/01/15 10:33:01;;;;;;;10.45;3.85;;;6.20;60.70;;;4.50;67.24;102666.09;8204136;28;20043;-81
2022/01/15 10:37:37;;;;;;;9.73;4.53;;;6.30;60.90;;;4.43;66.47;102639.34;8191160;28;20045;-82
2022/01/15 10:41:58;;;;;;;10.93;4.63;;;6.30;60.90;;;4.55;66.61;102656.59;8189232;28;20058;-82
2022/01/15 10:46:36;;;;;;;11.05;4.80;;;6.30;61.10;;;4.49;66.85;102641.09;8204630;28;20496;-81
2022/01/15 10:51:07;;;;;;;13.70;5.20;;;6.40;60.90;;;4.61;66.84;102645.41;8205460;28;20504;-82
2022/01/15 10:55:32;;;;;;;10.55;4.32;;;6.40;60.80;;;4.54;66.48;102628.16;8198836;28;20038;-81
2022/01/15 11:00:12;;;;;;;13.20;4.43;;;6.40;60.80;;;4.64;66.80;102638.53;8202878;28;20049;-81
2022/01/15 11:04:34;;;;;;;9.65;4.50;;;6.40;60.80;;;4.46;66.75;102593.66;8202476;28;20039;-82
2022/01/15 11:08:59;;;;;;;11.10;5.45;;;6.40;60.80;;;4.70;66.69;102621.25;8183472;28;20047;-82
2022/01/15 11:13:28;;;;;;;8.43;4.22;;;6.50;60.80;;;4.61;66.73;102602.28;8204713;28;20411;-81
2022/01/15 11:17:50;;;;;;;11.30;3.88;;;6.50;60.70;;;4.71;66.46;102602.28;8185949;28;20415;-81
2022/01/15 11:22:17;;;;;;;10.55;4.32;;;6.30;60.50;;;4.58;66.81;102570.38;8203921;28;20046;-82
2022/01/15 11:26:39;;;;;;;7.40;3.75;;;6.40;60.50;;;4.73;66.78;102590.22;8211177;28;20038;-81
2022/01/15 11:31:08;;;;;;;8.10;3.78;;;6.50;60.50;;;4.78;66.67;102597.09;8193866;28;20453;-81
2022/01/15 11:35:39;;;;;;;9.18;3.90;;;6.50;60.50;;;4.75;66.81;102589.34;8208115;28;20403;-80
2022/01/15 11:40:45;;;;;;;7.75;3.25;;;6.60;60.50;;;4.71;66.84;102590.19;8192067;28;20097;-83
2022/01/15 11:45:07;;;;;;;7.70;3.33;;;6.50;60.20;;;4.73;66.58;102600.56;8210072;28;20047;-80
2022/01/15 11:49:34;;;;;;;8.13;3.00;;;6.50;60.20;;;4.70;66.24;102595.38;8207615;28;20049;-80
2022/01/15 11:54:00;;;;;;;6.05;2.85;;;6.50;60.00;;;4.72;66.73;102602.25;8195250;28;20032;-79
2022/01/15 11:58:23;;;;;;;7.20;3.00;;;6.50;60.00;;;4.75;66.48;102601.41;8189770;28;20041;-80
2022/01/15 12:03:12;;;;;;;8.40;3.45;;;6.50;60.00;;;4.70;66.60;102590.19;8204294;28;20053;-80
2022/01/15 12:07:34;;;;;;;6.50;2.67;;;6.50;60.10;;;4.78;66.55;102585.88;8191093;28;20027;-80
2022/01/15 12:11:55;;;;;;;5.60;2.67;;;6.40;60.10;;;4.72;66.71;102572.94;8207894;28;20049;-80
2022/01/15 12:16:31;;;;;;;5.70;2.72;;;6.50;60.10;;;4.70;66.48;102575.56;8191890;28;20635;-80
2022/01/15 12:20:55;;;;;;;9.43;2.90;;;6.50;60.10;;;4.81;66.38;102588.47;8193289;28;20456;-79
2022/01/15 12:25:25;;;;;;;10.93;3.45;;;6.50;60.00;;;4.81;66.44;102597.09;8193852;28;20050;-79
2022/01/15 12:29:56;;;;;;;7.30;2.70;;;6.50;60.00;;;4.82;66.85;102590.19;8206474;28;20722;-79
2022/01/15 12:34:27;;;;;;;8.20;2.95;;;6.50;60.00;;;4.64;66.68;102557.41;8208202;28;20043;-80
2022/01/15 12:38:51;;;;;;;9.60;3.40;;;6.60;60.10;;;4.79;66.33;102578.13;8208405;28;20047;-79
2022/01/15 12:43:26;;;;;;;10.43;3.97;;;6.60;60.00;;;4.73;66.14;102566.91;8207026;28;20039;-79
2022/01/15 12:47:48;;;;;;;6.85;3.35;;;6.50;60.00;;;4.71;66.14;102559.16;8207952;28;20149;-80
2022/01/15 12:52:22;;;;;;;7.70;3.78;;;6.50;60.00;;;4.80;66.43;102574.66;8207725;28;20909;-79
2022/01/15 12:56:43;;;;;;;8.43;3.00;;;6.50;59.90;;;4.69;66.58;102540.16;8208193;28;20049;-79
2022/01/15 13:01:07;;;;;;;7.18;2.78;;;6.60;60.10;;;4.77;66.28;102538.44;8207116;28;20113;-80
2022/01/15 13:05:31;;;;;;;8.77;3.80;;;6.60;60.10;;;4.88;66.48;102548.75;8192933;28;20065;-80
2022/01/15 13:09:53;;;;;;;6.90;2.72;;;6.60;60.00;;;4.95;66.08;102557.41;8207828;28;20045;-81
2022/01/15 13:14:15;;;;;;;11.95;3.85;;;6.60;60.00;;;4.90;66.28;102547.03;8206602;28;20046;-80
2022/01/15 13:18:43;;;;;;;8.55;3.58;;;6.70;60.00;;;4.95;66.53;102542.72;8192759;28;20256;-80
2022/01/15 13:23:05;;;;;;;10.57;3.22;;;6.70;59.90;;;4.90;66.40;102535.81;8193367;28;20035;-80
2022/01/15 13:27:27;;;;;;;6.40;2.75;;;6.70;59.90;;;4.97;66.44;102543.59;8193397;28;20045;-80
2022/01/15 13:31:51;;;;;;;7.45;3.47;;;6.80;59.90;;;5.01;66.14;102524.56;8205584;28;20329;-81
2022/01/15 13:36:16;;;;;;;6.47;2.95;;;6.80;60.00;;;5.03;66.45;102525.44;8206817;28;20057;-81
2022/01/15 13:40:40;;;;;;;9.63;3.80;;;6.70;59.90;;;5.09;66.50;102529.72;8208912;28;20069;-80
2022/01/15 13:45:05;;;;;;;10.77;2.85;;;6.80;60.00;;;4.99;66.23;102515.94;8200023;28;20047;-80
2022/01/15 13:53:05;;;;;;;;;;;6.80;59.90;;;5.08;66.76;102534.06;8201003;28;20047;-81
2022/01/15 13:54:17;;;;;;;7.25;3.00;;;6.90;60.00;;;4.97;66.50;102496.09;8189759;28;19918;-81
2022/01/15 13:58:39;;;;;;;8.27;3.65;;;6.90;59.80;;;4.96;66.54;102500.41;8199219;28;20035;-81
2022/01/15 14:03:25;;;;;;;7.22;4.93;;;6.80;59.70;;;5.04;66.22;102518.53;8204671;28;20519;-81
2022/01/15 14:07:49;;;;;;;;;;;6.80;59.80;;;4.49;66.58;102421.22;8193849;28;20061;-80
2022/01/15 14:12:15;;;;;;;5.65;2.80;;;6.80;59.90;;;5.04;66.32;102505.56;8183458;28;19922;-81
2022/01/15 14:16:43;;;;;;;8.00;2.67;;;6.90;59.80;;;4.69;66.46;102446.16;8171721;28;20499;-81
2022/01/15 14:21:18;;;;;;;6.03;2.58;;;6.80;59.80;;;4.91;66.60;102478.00;8202693;28;20042;-81
2022/01/15 14:25:46;;;;;;;9.50;3.25;;;6.80;59.70;;;4.58;66.39;102420.31;8193087;28;20064;-82
2022/01/15 14:30:09;;;;;;;8.23;3.42;;;6.80;59.70;;;4.76;66.02;102453.91;8190237;28;20043;-82
2022/01/15 14:34:31;;;;;;;8.05;3.47;;;6.90;59.80;;;4.95;66.19;102472.81;8207344;28;20037;-82
2022/01/15 14:38:53;;;;;;;9.90;3.67;;;7.10;59.80;;;4.77;66.60;102431.47;8178178;28;20041;-82
2022/01/15 14:43:14;;;;;;;9.35;3.33;;;6.90;59.70;;;4.99;66.25;102466.75;8187497;28;20053;-82
2022/01/15 14:47:36;;;;;;;9.18;3.92;;;7.00;59.70;;;4.64;65.86;102409.94;8187836;28;20060;-81
2022/01/15 14:51:58;;;;;;;8.45;3.47;;;6.80;59.60;;;4.71;65.87;102419.41;8193550;28;20042;-81
2022/01/15 14:56:20;;;;;;;12.98;4.53;;;7.00;59.60;;;5.14;66.29;102477.94;8164605;28;20030;-81
2022/01/15 15:00:42;;;;;;;11.80;5.07;;;7.00;59.60;;;4.70;66.13;102403.88;8181624;28;20034;-82
2022/01/15 15:05:11;;;;;;;5.45;3.90;;;7.00;59.60;;;5.28;66.02;102486.50;8184866;28;20043;-81
2022/01/15 15:09:33;;;;;;;10.27;4.22;;;7.00;59.50;;;5.08;66.66;102461.56;8189784;28;20043;-82
2022/01/15 15:13:55;;;;;;;8.93;3.90;;;6.80;59.40;;;4.63;65.74;102390.13;8177573;28;20035;-81
2022/01/15 15:18:17;;;;;;;10.73;4.32;;;7.00;59.50;;;4.42;65.94;102347.06;8181938;28;20082;-81
2022/01/15 15:22:39;;;;;;;11.07;4.30;;;7.00;59.50;;;4.86;66.05;102418.47;8201407;28;20072;-82
2022/01/15 15:27:01;;;;;;;14.23;7.85;;;7.00;59.40;;;4.68;66.29;102388.38;8201375;28;20043;-81
2022/01/15 15:31:23;;;;;;;8.77;5.32;;;7.30;59.60;;;4.37;66.28;102341.91;8194734;28;20031;-81
2022/01/15 15:35:45;;;;;;;14.27;4.82;;;7.00;59.40;;;4.74;66.24;102403.88;8178913;28;20496;-82
2022/01/15 15:40:08;;;;;;;8.70;3.90;;;6.70;59.30;;;4.84;66.31;102426.28;8200497;28;20048;-82
2022/01/15 15:44:31;;;;;;;9.07;3.83;;;7.00;59.40;;;4.92;66.11;102439.19;8201440;28;20049;-82
2022/01/15 15:48:53;;;;;;;9.90;3.08;;;7.00;59.50;;;4.90;66.32;102437.47;8186820;28;20059;-82
2022/01/15 15:53:18;;;;;;;12.65;4.03;;;7.20;59.60;;;5.00;66.15;102457.28;8163209;28;20474;-82
2022/01/15 15:57:43;;;;;;;4.90;3.33;;;7.00;59.50;;;4.59;65.87;102390.97;8206803;28;20035;-82
2022/01/15 16:02:05;;;;;;;6.87;2.97;;;7.00;59.50;;;4.55;65.74;102376.34;8161014;28;20440;-81
2022/01/15 16:06:30;;;;;;;8.05;3.65;;;7.00;59.50;;;4.88;65.62;102424.50;8191530;28;20053;-82
2022/01/15 16:10:52;;;;;;;9.23;3.57;;;6.80;59.40;;;4.25;66.35;102336.78;8183144;28;20051;-82
2022/01/15 16:15:15;;;;;;;7.50;3.40;;;6.90;59.50;;;4.53;66.00;102376.34;8194367;28;20045;-82
2022/01/15 16:19:40;;;;;;;4.65;3.28;;;6.80;59.50;;;4.72;65.96;102413.34;8176122;28;20047;-83
2022/01/15 16:24:06;;;;;;;11.23;4.03;;;6.80;59.50;;;4.93;66.20;102446.06;8197213;28;20050;-83
2022/01/15 16:28:28;;;;;;;7.40;3.33;;;6.80;59.50;;;5.02;65.94;102451.22;8173183;28;20039;-82
2022/01/15 16:32:55;;;;;;;7.13;2.97;;;6.80;59.50;;;4.81;65.59;102426.28;8178771;28;20716;-83
2022/01/15 16:37:20;;;;;;;8.27;3.58;;;6.80;59.50;;;4.31;66.01;102341.94;8187886;28;20031;-83
2022/01/15 16:41:53;;;;;;;6.15;2.65;;;6.80;59.90;;;4.68;66.41;102395.28;8177747;28;20042;-83
2022/01/15 16:46:40;;;;;;;6.05;2.55;;;6.70;59.50;;;4.50;65.88;102363.41;8182980;28;20656;-83
2022/01/15 16:55:59;;;;;;;10.95;3.05;;;6.70;59.50;;;4.94;65.98;102449.50;8318385;23;21912;-82
2022/01/15 17:00:29;;;;;;;8.25;4.25;;;7.00;59.70;;;4.26;65.84;102322.13;8237844;28;20529;-83
2022/01/15 17:04:52;;;;;;;8.60;5.95;;;6.70;59.60;;;4.78;66.01;102405.59;8242700;28;20042;-83
2022/01/15 17:09:23;;;;;;;8.43;4.93;;;6.90;59.80;;;4.74;66.07;102398.69;8241173;28;20450;-83
2022/01/15 17:13:50;;;;;;;8.07;3.85;;;6.60;59.60;;;4.58;66.00;102372.00;8239043;28;20034;-83
2022/01/15 17:18:55;;;;;;;5.00;2.88;;;6.70;59.60;;;4.20;66.11;102302.31;8252505;28;20046;-83
2022/01/15 17:23:28;;;;;;;6.65;3.30;;;6.70;59.60;;;4.43;66.33;102335.88;8237828;28;20399;-84
2022/01/15 17:28:16;;;;;;;7.88;4.75;;;6.70;59.60;;;4.64;66.23;102373.72;8238045;28;20068;-83
2022/01/15 17:32:54;;;;;;;9.48;3.63;;;6.60;59.60;;;4.23;65.81;102312.66;8253487;28;20507;-82
2022/01/15 17:37:52;;;;;;;9.88;3.33;;;6.70;59.70;;;4.19;66.23;102313.53;8231852;28;20041;-81
2022/01/15 17:42:13;;;;;;;8.27;2.78;;;6.60;59.60;;;4.37;65.84;102341.91;8238855;28;20073;-84
2022/01/15 17:46:35;;;;;;;7.80;2.95;;;6.60;59.60;;;4.91;65.93;102426.22;8259699;28;20040;-83
2022/01/15 17:50:57;;;;;;;9.90;3.60;;;6.60;59.60;;;4.91;66.04;102415.88;8255597;28;20038;-84
2022/01/15 17:55:22;;;;;;;4.90;2.97;;;6.60;59.60;;;4.72;65.86;102373.69;8229821;28;20484;-83
2022/01/15 17:59:44;;;;;;;7.60;3.43;;;6.60;59.60;;;4.90;66.40;102403.81;8239760;28;20050;-82
2022/01/15 18:04:05;;;;;;;9.65;3.75;;;6.60;59.60;;;4.62;65.87;102357.38;8242334;28;20290;-82
2022/01/15 18:08:27;;;;;;;8.85;3.90;;;6.60;59.60;;;4.81;66.30;102384.03;8231722;28;20049;-84
2022/01/15 18:12:52;;;;;;;10.68;3.58;;;6.60;59.60;;;4.90;65.94;102396.06;8253367;28;20064;-83
2022/01/15 18:17:14;;;;;;;8.00;3.23;;;6.60;59.60;;;4.79;66.24;102376.25;8249723;28;20038;-84
2022/01/15 18:21:41;;;;;;;8.70;3.90;;;6.60;59.60;;;4.77;65.77;102374.53;8247488;28;20034;-83
2022/01/15 18:26:05;;;;;;;14.20;4.57;;;6.60;59.60;;;4.65;66.10;102347.00;8237127;28;20042;-83
2022/01/15 18:30:27;;;;;;;10.60;4.57;;;6.60;59.60;;;4.84;66.25;102369.31;8244771;28;20185;-82
2022/01/15 18:34:48;;;;;;;8.50;4.63;;;6.60;59.70;;;4.82;66.04;102359.84;8251886;28;20040;-84
2022/01/15 18:39:14;;;;;;;9.43;4.10;;;6.60;59.70;;;4.85;66.16;102370.19;8255545;28;20038;-84
2022/01/15 18:43:36;;;;;;;11.25;4.75;;;6.60;59.70;;;4.90;65.81;102372.75;8238780;28;20427;-83
2022/01/15 18:47:59;;;;;;;10.52;4.63;;;6.60;59.80;;;4.92;66.38;102360.69;8262115;28;20042;-83
2022/01/15 18:52:20;;;;;;;21.80;7.40;;;6.60;59.80;;;4.92;66.23;102369.28;8254037;28;20042;-83
2022/01/15 18:56:43;;;;;;;13.82;7.05;;;6.60;59.70;;;4.85;66.20;102371.03;8253595;28;20517;-83
2022/01/15 19:01:04;;;;;;;14.63;6.65;;;6.70;59.80;;;4.86;66.26;102388.31;8229213;28;20104;-84
2022/01/15 19:05:26;;;;;;;14.93;7.40;;;6.60;59.70;;;4.85;66.03;102394.31;8251595;28;20048;-83
2022/01/15 19:09:48;;;;;;;13.43;6.10;;;6.60;59.60;;;4.93;66.25;102425.38;8239916;28;20038;-83